ADDS METAR Data

Data at: 0513 UTC 19 Jan 2018

METAR for:KBHB (Bar Harbor/Hancock C, ME, US)
Text:KBHB 190456Z AUTO 00000KT 9SM CLR M11/M12 A2988 RMK AO2 SLP121 T11061122 FZRANO PNO $
Temperature:-10.6°C ( 13°F)
Dewpoint:-12.2°C ( 10°F) [RH = 88%]
Pressure (altimeter):29.88 inches Hg (1011.9 mb) [Sea level pressure: 1012.1 mb]
Winds:calm
Visibility: 9 sm ( 14 km)
Ceiling:at least 12,000 feet AGL
Clouds:sky clear below 12,000 feet AGL
QC Flag:automated observation with no human augmentation; SOME DATA ABOVE MAY BE INACCURATE!!!"$" is an indication the sensor requires maintenance.